Time;durP1;ratioP1;P1;durP2;ratioP2;P2;SDS_P1;SDS_P2;PMS_P1;PMS_P2;Temp;Humidity;BMP_temperature;BMP_pressure;BME280_temperature;BME280_humidity;BME280_pressure;Samples;Min_cycle;Max_cycle;Signal;HPM_P1;HPM_P2
2022/08/22 00:00:49;;;;;;;7.35;3.40;;;18.80;99.90;;;;;;5056237;28;20033;-57
2022/08/22 00:03:26;;;;;;;6.05;3.90;;;18.80;99.90;;;;;;5056263;28;20029;-57
2022/08/22 00:06:14;;;;;;;13.00;3.25;;;18.80;99.90;;;;;;5056286;28;20036;-57
2022/08/22 00:08:52;;;;;;;4.40;3.10;;;18.80;99.90;;;;;;5056301;28;20025;-57
2022/08/22 00:11:28;;;;;;;5.93;3.20;;;18.80;99.90;;;;;;5055824;28;20033;-57
2022/08/22 00:13:59;;;;;;;6.40;2.85;;;18.80;99.90;;;;;;5055927;28;20052;-57
2022/08/22 00:16:50;;;;;;;5.13;2.90;;;18.70;99.90;;;;;;5054798;28;20100;-57
2022/08/22 00:19:30;;;;;;;3.17;2.50;;;18.80;99.90;;;;;;5055925;28;20025;-57
2022/08/22 00:22:45;;;;;;;5.80;2.97;;;18.70;99.90;;;;;;5055785;28;20024;-57
2022/08/22 00:25:29;;;;;;;4.82;2.63;;;18.70;99.90;;;;;;5051083;28;20419;-57
2022/08/22 00:28:28;;;;;;;5.82;2.55;;;18.70;99.90;;;;;;5055692;28;20068;-57
2022/08/22 00:31:06;;;;;;;6.43;3.05;;;18.70;99.90;;;;;;5055437;28;20044;-57
2022/08/22 00:33:46;;;;;;;8.02;2.55;;;18.70;99.90;;;;;;5055487;28;20079;-57
2022/08/22 00:36:32;;;;;;;4.50;2.63;;;18.70;99.90;;;;;;5055576;28;20033;-57
2022/08/22 00:39:23;;;;;;;2.88;2.30;;;18.60;99.90;;;;;;5055734;28;20033;-57
2022/08/22 00:41:55;;;;;;;8.13;2.65;;;18.60;99.90;;;;;;5054229;28;20045;-57
2022/08/22 00:45:07;;;;;;;4.20;2.35;;;18.60;99.90;;;;;;5055274;28;20050;-56
2022/08/22 00:47:55;;;;;;;3.97;2.25;;;18.60;99.90;;;;;;5048203;28;20556;-57
2022/08/22 00:50:57;;;;;;;5.13;2.10;;;18.60;99.90;;;;;;5055327;28;20037;-57
2022/08/22 00:54:03;;;;;;;2.47;2.15;;;18.60;99.90;;;;;;5055449;28;20103;-57
2022/08/22 00:56:57;;;;;;;7.25;2.85;;;18.60;99.90;;;;;;5033734;28;20041;-57
2022/08/22 00:59:28;;;;;;;2.97;2.20;;;18.60;99.90;;;;;;5055152;28;20021;-57
2022/08/22 01:01:54;;;;;;;7.28;2.28;;;18.70;99.90;;;;;;5055202;28;20482;-57
2022/08/22 01:04:28;;;;;;;6.65;2.30;;;18.60;99.90;;;;;;5055087;28;20021;-57
2022/08/22 01:07:30;;;;;;;5.35;2.47;;;18.60;99.90;;;;;;5055157;28;20021;-57
2022/08/22 01:10:27;;;;;;;5.28;2.80;;;18.60;99.90;;;;;;5051112;28;20049;-57
2022/08/22 01:13:22;;;;;;;6.45;2.70;;;18.60;99.90;;;;;;5055171;28;20108;-57
2022/08/22 01:15:54;;;;;;;4.03;2.47;;;18.60;99.90;;;;;;5054762;28;20095;-57
2022/08/22 01:18:46;;;;;;;5.43;2.20;;;18.60;99.90;;;;;;5054860;28;20025;-57
2022/08/22 01:21:40;;;;;;;2.92;1.92;;;18.60;99.90;;;;;;5054707;28;20033;-57
2022/08/22 01:24:09;;;;;;;3.67;2.40;;;18.60;99.90;;;;;;5054908;28;20033;-57
2022/08/22 01:27:15;;;;;;;3.05;2.58;;;18.60;99.90;;;;;;5055037;28;20025;-57
2022/08/22 01:30:22;;;;;;;3.63;2.50;;;18.50;99.90;;;;;;5054773;28;20035;-57
2022/08/22 01:33:25;;;;;;;7.03;2.33;;;18.50;99.90;;;;;;5032367;28;20033;-57
2022/08/22 01:36:12;;;;;;;4.45;2.10;;;18.50;99.90;;;;;;5032220;28;20112;-57
2022/08/22 01:39:28;;;;;;;6.07;1.98;;;18.60;99.90;;;;;;5032230;28;20041;-57
2022/08/22 01:42:37;;;;;;;6.35;2.40;;;18.50;99.90;;;;;;4973543;28;20481;-57
2022/08/22 01:45:20;;;;;;;4.97;2.67;;;18.50;99.90;;;;;;4973231;28;20464;-57
2022/08/22 01:48:15;;;;;;;3.95;2.28;;;18.50;99.90;;;;;;4973194;28;20051;-57
2022/08/22 01:50:51;;;;;;;5.13;2.17;;;18.50;99.90;;;;;;4972220;28;20050;-57
2022/08/22 01:53:30;;;;;;;4.80;1.95;;;18.60;99.90;;;;;;4973282;28;20035;-57
2022/08/22 01:56:18;;;;;;;6.50;2.72;;;18.50;99.90;;;;;;4972713;28;20122;-57
2022/08/22 01:59:04;;;;;;;5.35;2.40;;;18.60;99.90;;;;;;4973114;28;20170;-57
2022/08/22 02:01:48;;;;;;;3.22;2.03;;;18.60;99.90;;;;;;4973201;28;20089;-57
2022/08/22 02:05:01;;;;;;;2.20;2.00;;;18.50;99.90;;;;;;4973234;28;20563;-57
2022/08/22 02:07:43;;;;;;;6.07;2.33;;;18.50;99.90;;;;;;4973132;28;20038;-57
2022/08/22 02:10:12;;;;;;;6.15;2.35;;;18.60;99.90;;;;;;4973064;28;20113;-57
2022/08/22 02:12:55;;;;;;;7.63;2.65;;;18.50;99.90;;;;;;4973150;28;20031;-57
2022/08/22 02:15:40;;;;;;;9.32;3.10;;;18.50;99.90;;;;;;4995614;28;20115;-57
2022/08/22 02:18:05;;;;;;;7.75;3.05;;;18.50;99.90;;;;;;5034418;28;20463;-57
2022/08/22 02:20:46;;;;;;;6.88;2.90;;;18.50;99.90;;;;;;5034062;28;20042;-57
2022/08/22 02:23:40;;;;;;;5.72;2.70;;;18.60;99.90;;;;;;5034115;28;20529;-57
2022/08/22 02:26:22;;;;;;;2.58;2.00;;;18.60;99.90;;;;;;5034233;28;20057;-57
2022/08/22 02:28:58;;;;;;;9.95;2.50;;;18.60;99.90;;;;;;5034024;28;20044;-57
2022/08/22 02:31:46;;;;;;;6.57;2.40;;;18.50;99.90;;;;;;5034230;28;20679;-57
2022/08/22 02:34:35;;;;;;;10.68;3.03;;;18.50;99.90;;;;;;5033912;28;20156;-57
2022/08/22 02:37:11;;;;;;;3.35;2.45;;;18.50;99.90;;;;;;5033883;28;20048;-57
2022/08/22 02:40:07;;;;;;;9.65;2.42;;;18.50;99.90;;;;;;5034372;28;20117;-57
2022/08/22 02:42:52;;;;;;;5.63;2.60;;;18.50;99.90;;;;;;5033918;28;20037;-57
2022/08/22 02:45:37;;;;;;;5.22;2.80;;;18.50;99.90;;;;;;5034014;28;20057;-57
2022/08/22 02:48:16;;;;;;;7.18;2.97;;;18.40;99.90;;;;;;5042164;28;20444;-56
2022/08/22 02:51:04;;;;;;;5.40;3.53;;;18.50;99.90;;;;;;5053720;28;20308;-57
2022/08/22 02:53:54;;;;;;;7.88;3.10;;;18.40;99.90;;;;;;5053961;28;20025;-57
2022/08/22 02:56:33;;;;;;;7.60;3.47;;;18.40;99.90;;;;;;5053799;28;20025;-57
2022/08/22 02:59:22;;;;;;;5.82;2.95;;;18.40;99.90;;;;;;5053925;28;20064;-57
2022/08/22 03:01:50;;;;;;;5.25;2.88;;;18.40;99.90;;;;;;5053659;28;20067;-57
2022/08/22 03:04:31;;;;;;;6.25;3.08;;;18.40;99.90;;;;;;5053655;28;20025;-57
2022/08/22 03:07:05;;;;;;;5.25;2.58;;;18.30;99.90;;;;;;5055289;28;20021;-57
2022/08/22 03:09:38;;;;;;;5.10;2.53;;;18.40;99.90;;;;;;5057009;28;20044;-57
2022/08/22 03:12:31;;;;;;;3.65;2.97;;;18.40;99.90;;;;;;5057289;28;20093;-57
2022/08/22 03:15:07;;;;;;;6.00;2.95;;;18.40;99.90;;;;;;5057275;28;20433;-57
2022/08/22 03:18:20;;;;;;;5.30;2.80;;;18.40;99.90;;;;;;5057082;28;20446;-57
2022/08/22 03:21:08;;;;;;;4.47;2.58;;;18.40;99.90;;;;;;5056772;28;20045;-57
2022/08/22 03:23:54;;;;;;;6.40;2.97;;;18.30;99.90;;;;;;5056944;28;20090;-57
2022/08/22 03:26:35;;;;;;;5.65;3.00;;;18.30;99.90;;;;;;5056513;28;20090;-57
2022/08/22 03:29:35;;;;;;;7.13;2.95;;;18.30;99.90;;;;;;5057038;28;20037;-57
2022/08/22 03:32:14;;;;;;;3.63;2.70;;;18.30;99.90;;;;;;5052811;28;20487;-57
2022/08/22 03:35:02;;;;;;;4.65;3.35;;;18.20;99.90;;;;;;5056701;28;20386;-57
2022/08/22 03:37:34;;;;;;;9.60;5.00;;;18.20;99.90;;;;;;5056695;28;20098;-57
2022/08/22 03:40:20;;;;;;;12.98;6.13;;;18.30;99.90;;;;;;5056899;28;20044;-57
2022/08/22 03:43:20;;;;;;;14.95;8.10;;;18.20;99.90;;;;;;5055416;28;20044;-57
2022/08/22 03:46:29;;;;;;;13.77;8.57;;;18.30;99.90;;;;;;5055085;28;20036;-57
2022/08/22 03:49:13;;;;;;;20.48;7.97;;;18.30;99.90;;;;;;5055319;28;20049;-57
2022/08/22 03:51:45;;;;;;;26.98;7.80;;;18.30;99.90;;;;;;5055217;28;20037;-57
2022/08/22 03:54:22;;;;;;;11.55;6.78;;;18.30;99.90;;;;;;5056386;28;20466;-57
2022/08/22 03:57:10;;;;;;;17.50;6.75;;;18.30;99.90;;;;;;5056652;28;20040;-57
2022/08/22 04:00:02;;;;;;;14.35;7.38;;;18.30;99.90;;;;;;5056202;28;20056;-57
2022/08/22 04:02:53;;;;;;;15.88;7.63;;;18.30;99.90;;;;;;5056119;28;20040;-57
2022/08/22 04:05:49;;;;;;;16.50;8.75;;;18.20;99.90;;;;;;5056318;28;20043;-57
2022/08/22 04:08:40;;;;;;;15.85;9.38;;;18.20;99.90;;;;;;5055978;28;20036;-57
2022/08/22 04:11:35;;;;;;;23.77;9.93;;;18.20;99.90;;;;;;5055982;28;20087;-57
2022/08/22 04:14:04;;;;;;;16.65;8.75;;;18.10;99.90;;;;;;5055998;28;20086;-57
2022/08/22 04:16:51;;;;;;;21.25;9.68;;;18.20;99.90;;;;;;5056051;28;20032;-57
2022/08/22 04:19:39;;;;;;;17.13;8.63;;;18.10;99.90;;;;;;5055312;28;20064;-57
2022/08/22 04:22:32;;;;;;;23.60;10.23;;;18.30;99.90;;;;;;5055928;28;20040;-57
2022/08/22 04:25:06;;;;;;;24.85;10.35;;;18.20;99.90;;;;;;5055955;28;20551;-57
2022/08/22 04:27:46;;;;;;;17.02;10.05;;;18.20;99.90;;;;;;5055762;28;20028;-57
2022/08/22 04:30:30;;;;;;;19.63;10.35;;;18.20;99.90;;;;;;5055933;28;20025;-57
2022/08/22 04:33:01;;;;;;;18.75;9.40;;;18.30;99.90;;;;;;5055802;28;20057;-57
2022/08/22 04:35:40;;;;;;;20.10;9.10;;;18.30;99.90;;;;;;5055482;28;20085;-57
2022/08/22 04:38:29;;;;;;;18.73;9.23;;;18.30;99.90;;;;;;5055494;28;20096;-57
2022/08/22 04:41:29;;;;;;;20.15;8.40;;;18.30;99.90;;;;;;5055651;28;20025;-57
2022/08/22 04:44:12;;;;;;;15.02;7.85;;;18.20;99.90;;;;;;5055419;28;20037;-57
2022/08/22 04:46:57;;;;;;;14.07;7.47;;;18.20;99.90;;;;;;5055495;28;20360;-57
2022/08/22 04:49:36;;;;;;;18.40;7.97;;;18.20;99.90;;;;;;5055046;28;20045;-57
2022/08/22 04:52:10;;;;;;;11.65;7.80;;;18.20;99.90;;;;;;5055442;28;20037;-57
2022/08/22 04:54:48;;;;;;;12.30;7.15;;;18.30;99.90;;;;;;5055283;28;20028;-57
2022/08/22 04:57:26;;;;;;;12.02;7.53;;;18.30;99.90;;;;;;5055250;28;20033;-57
2022/08/22 04:59:58;;;;;;;11.60;7.80;;;18.30;99.90;;;;;;5055143;28;20029;-57
2022/08/22 05:02:30;;;;;;;9.88;7.60;;;18.30;99.90;;;;;;5055165;28;20032;-57
2022/08/22 05:05:31;;;;;;;9.40;7.28;;;18.30;99.90;;;;;;5054762;28;20029;-57
2022/08/22 05:08:02;;;;;;;12.00;7.90;;;18.30;99.90;;;;;;5055038;28;20025;-57
2022/08/22 05:10:33;;;;;;;;;;;18.30;99.90;;;;;;5054926;28;20029;-57
2022/08/22 05:13:07;;;;;;;13.02;7.63;;;18.30;99.90;;;;;;5054777;28;20308;-57
2022/08/22 05:15:41;;;;;;;15.45;8.65;;;18.30;99.90;;;;;;5045076;28;20395;-57
2022/08/22 05:18:12;;;;;;;13.07;9.30;;;18.40;99.90;;;;;;5038785;28;20028;-56
2022/08/22 05:20:40;;;;;;;10.82;8.77;;;18.40;99.90;;;;;;5045262;28;20139;-57
2022/08/22 05:23:17;;;;;;;17.45;9.45;;;18.40;99.90;;;;;;5037229;28;20451;-57
2022/08/22 05:25:46;;;;;;;15.00;8.90;;;18.40;99.90;;;;;;5050532;28;20052;-57
2022/08/22 05:28:36;;;;;;;12.80;8.90;;;18.50;99.90;;;;;;5048486;28;20035;-57
2022/08/22 05:31:07;;;;;;;13.03;8.03;;;18.50;99.90;;;;;;5049057;28;20032;-57
2022/08/22 05:33:45;;;;;;;13.05;7.30;;;18.50;99.90;;;;;;5054499;28;20029;-57
2022/08/22 05:36:16;;;;;;;10.82;7.30;;;18.60;99.90;;;;;;5051380;28;20070;-57
2022/08/22 05:38:45;;;;;;;;;;;18.60;99.90;;;;;;5049157;28;20104;-57
2022/08/22 05:41:17;;;;;;;17.73;7.72;;;18.70;99.90;;;;;;5040168;28;20354;-57
2022/08/22 05:43:47;;;;;;;12.45;7.68;;;18.70;99.90;;;;;;5045886;28;20044;-57
2022/08/22 05:46:23;;;;;;;19.17;8.63;;;18.80;99.90;;;;;;5050012;28;20032;-57
2022/08/22 05:48:57;;;;;;;8.45;6.95;;;18.80;99.90;;;;;;5050851;28;20592;-57
2022/08/22 05:51:38;;;;;;;8.70;6.47;;;18.80;99.90;;;;;;5047669;28;20522;-57
2022/08/22 05:54:18;;;;;;;7.85;6.30;;;18.80;99.90;;;;;;5045019;28;20032;-57
2022/08/22 05:57:10;;;;;;;10.65;6.72;;;18.80;99.90;;;;;;5043718;28;20088;-57
2022/08/22 05:59:41;;;;;;;16.17;7.72;;;18.80;99.90;;;;;;5053401;28;20033;-57
2022/08/22 06:02:22;;;;;;;12.98;7.65;;;18.80;99.90;;;;;;5053781;28;20029;-57
2022/08/22 06:04:53;;;;;;;12.77;6.93;;;18.80;99.90;;;;;;5040559;28;20118;-57
2022/08/22 06:07:22;;;;;;;14.52;7.10;;;18.70;99.90;;;;;;5043202;28;20029;-57
2022/08/22 06:10:14;;;;;;;12.38;7.07;;;18.80;99.90;;;;;;5047686;28;20090;-57
2022/08/22 06:13:00;;;;;;;16.90;7.80;;;18.80;99.90;;;;;;5051240;28;20021;-57
2022/08/22 06:15:32;;;;;;;23.38;8.57;;;19.00;99.90;;;;;;5042432;28;20084;-57
2022/08/22 06:18:06;;;;;;;12.10;7.38;;;19.00;99.90;;;;;;5050788;28;20040;-57
2022/08/22 06:20:44;;;;;;;14.57;7.80;;;19.10;99.90;;;;;;5053758;28;20470;-57
2022/08/22 06:23:16;;;;;;;20.83;8.25;;;19.10;99.90;;;;;;5052461;28;20024;-57
2022/08/22 06:25:46;;;;;;;14.45;7.15;;;19.10;99.90;;;;;;5044370;28;20022;-57
2022/08/22 06:28:21;;;;;;;9.80;6.55;;;19.20;99.90;;;;;;5051820;28;20108;-57
2022/08/22 06:30:51;;;;;;;10.90;6.70;;;19.20;99.90;;;;;;5054323;28;20036;-57
2022/08/22 06:33:28;;;;;;;14.70;7.03;;;19.20;99.90;;;;;;5053359;28;20041;-57
2022/08/22 06:38:52;;;;;;;14.50;7.15;;;19.20;99.90;;;;;;5050650;28;21045;-57
2022/08/22 06:41:21;;;;;;;15.38;8.15;;;19.20;99.90;;;;;;5053760;28;20041;-57
2022/08/22 06:43:51;;;;;;;16.25;8.70;;;19.20;99.90;;;;;;5051925;28;20025;-57
2022/08/22 06:46:19;;;;;;;20.63;9.30;;;19.20;99.90;;;;;;5051155;28;20862;-57
2022/08/22 06:48:46;;;;;;;14.35;8.68;;;19.30;99.90;;;;;;5050473;28;20041;-57
2022/08/22 06:51:14;;;;;;;10.60;7.53;;;19.30;99.90;;;;;;5056742;28;20475;-57
2022/08/22 06:53:48;;;;;;;20.95;9.55;;;19.40;99.90;;;;;;5052873;28;20028;-57
2022/08/22 06:56:28;;;;;;;22.42;9.75;;;19.40;99.90;;;;;;5055715;28;20020;-57
2022/08/22 06:58:58;;;;;;;14.18;8.50;;;19.50;99.90;;;;;;5054647;28;20048;-57
2022/08/22 07:01:29;;;;;;;14.32;7.88;;;19.40;99.90;;;;;;5047290;28;20035;-57
2022/08/22 07:04:25;;;;;;;16.75;9.18;;;19.50;99.90;;;;;;5055791;28;20029;-57
2022/08/22 07:06:56;;;;;;;10.15;7.22;;;19.50;99.90;;;;;;5046528;28;20128;-57
2022/08/22 07:09:36;;;;;;;16.42;7.88;;;19.50;99.90;;;;;;5050206;28;20075;-57
2022/08/22 07:12:29;;;;;;;14.05;6.78;;;19.50;99.90;;;;;;5055570;28;20036;-57
2022/08/22 07:15:18;;;;;;;12.98;6.95;;;19.40;99.90;;;;;;5055701;28;20374;-57
2022/08/22 07:17:57;;;;;;;13.65;7.22;;;19.40;99.90;;;;;;5053946;28;20108;-57
2022/08/22 07:20:27;;;;;;;14.40;7.03;;;19.50;99.90;;;;;;5056581;28;20047;-57
2022/08/22 07:23:09;;;;;;;16.15;6.57;;;19.50;99.90;;;;;;5056689;28;20574;-57
2022/08/22 07:25:58;;;;;;;15.90;7.03;;;19.60;99.90;;;;;;5050396;28;20518;-57
2022/08/22 07:28:35;;;;;;;12.88;7.45;;;19.50;99.90;;;;;;5044669;28;20383;-57
2022/08/22 07:31:11;;;;;;;10.13;6.53;;;19.60;99.90;;;;;;5048279;28;20394;-57
2022/08/22 07:33:50;;;;;;;16.92;8.27;;;19.60;99.90;;;;;;5048531;28;20036;-57
2022/08/22 07:36:19;;;;;;;16.33;8.18;;;19.70;99.90;;;;;;5053902;28;20077;-57
2022/08/22 07:39:20;;;;;;;9.95;6.55;;;19.60;99.90;;;;;;5048955;28;20374;-57
2022/08/22 07:42:15;;;;;;;14.52;8.00;;;19.40;99.90;;;;;;5052116;28;20029;-57
2022/08/22 07:44:54;;;;;;;10.98;7.07;;;19.40;99.90;;;;;;5046758;28;20367;-57
2022/08/22 07:47:23;;;;;;;13.85;7.50;;;19.30;99.90;;;;;;5047370;28;20475;-57
2022/08/22 07:50:02;;;;;;;14.02;7.72;;;19.40;99.90;;;;;;5047590;28;20024;-57
2022/08/22 07:52:39;;;;;;;15.23;8.75;;;19.40;99.90;;;;;;5054197;28;20103;-57
2022/08/22 07:55:16;;;;;;;11.10;7.57;;;19.50;99.90;;;;;;5053999;28;20079;-57
2022/08/22 07:58:12;;;;;;;9.20;6.57;;;19.50;99.90;;;;;;5055430;28;20052;-57
2022/08/22 08:00:44;;;;;;;11.88;6.80;;;19.50;99.90;;;;;;5054650;28;20063;-57
2022/08/22 08:03:13;;;;;;;14.98;7.75;;;19.50;99.90;;;;;;5053311;28;20021;-57
2022/08/22 08:05:43;;;;;;;7.63;6.07;;;19.50;99.90;;;;;;5054650;28;20025;-57
2022/08/22 08:08:29;;;;;;;9.55;6.55;;;19.40;99.90;;;;;;5053000;28;20051;-57
2022/08/22 08:10:58;;;;;;;12.65;6.47;;;19.40;99.90;;;;;;5053931;28;20032;-57
2022/08/22 08:13:36;;;;;;;19.88;7.78;;;19.40;99.90;;;;;;5054284;28;20077;-57
2022/08/22 08:16:07;;;;;;;17.00;6.60;;;19.40;99.90;;;;;;5053449;28;20024;-57
2022/08/22 08:18:35;;;;;;;14.73;6.65;;;19.40;99.90;;;;;;5054789;28;20487;-57
2022/08/22 08:21:09;;;;;;;10.02;6.63;;;19.40;99.90;;;;;;5054500;28;20031;-57
2022/08/22 08:23:40;;;;;;;12.23;7.18;;;19.40;99.90;;;;;;5053880;28;20036;-58
2022/08/22 08:26:09;;;;;;;10.55;7.70;;;19.40;99.90;;;;;;5037057;28;20115;-57
2022/08/22 08:28:43;;;;;;;14.48;8.93;;;19.30;99.90;;;;;;5045707;28;20036;-57
2022/08/22 08:31:16;;;;;;;21.67;9.95;;;19.30;99.90;;;;;;5056056;28;20056;-57
2022/08/22 08:33:46;;;;;;;15.98;8.75;;;19.30;99.90;;;;;;5056283;28;20029;-57
2022/08/22 08:36:41;;;;;;;14.20;8.52;;;19.40;99.90;;;;;;5056432;28;20092;-57
2022/08/22 08:39:31;;;;;;;13.50;8.25;;;19.40;99.90;;;;;;5041924;28;20032;-57
2022/08/22 08:45:41;;;;;;;12.00;7.30;;;19.50;99.90;;;;;;5031166;28;20048;-57
2022/08/22 08:48:39;;;;;;;10.70;6.70;;;19.60;99.90;;;;;;5047968;28;20034;-58
2022/08/22 08:51:25;;;;;;;8.63;6.65;;;19.50;99.90;;;;;;5053434;28;20029;-57
2022/08/22 08:53:51;;;;;;;9.70;6.78;;;19.60;99.90;;;;;;5054456;28;20032;-57
2022/08/22 08:56:20;;;;;;;8.65;6.15;;;19.40;99.90;;;;;;5054940;28;20394;-57
2022/08/22 08:59:03;;;;;;;10.48;6.93;;;19.40;99.90;;;;;;5055092;28;20029;-57
2022/08/22 09:02:26;;;;;;;9.10;6.55;;;19.30;99.90;;;;;;5048532;28;20037;-57
2022/08/22 09:05:16;;;;;;;7.45;6.15;;;19.20;99.90;;;;;;5031963;28;20053;-57
2022/08/22 09:08:04;;;;;;;6.10;5.00;;;19.20;99.90;;;;;;5031923;28;20033;-57
2022/08/22 09:10:58;;;;;;;8.32;5.50;;;19.30;99.90;;;;;;5032453;28;20076;-57
2022/08/22 09:13:37;;;;;;;7.10;5.25;;;19.20;99.90;;;;;;5028899;28;20114;-57
2022/08/22 09:16:14;;;;;;;7.25;5.30;;;19.30;99.90;;;;;;5032100;28;20080;-57
2022/08/22 09:19:10;;;;;;;7.85;5.25;;;19.20;99.90;;;;;;5031945;28;20624;-57
2022/08/22 09:22:06;;;;;;;5.25;4.25;;;19.40;99.90;;;;;;5031232;28;20478;-57
2022/08/22 09:25:05;;;;;;;5.55;4.38;;;19.20;99.90;;;;;;5029547;28;20471;-57
2022/08/22 09:27:48;;;;;;;8.88;4.47;;;19.30;99.90;;;;;;5032011;28;20096;-57
2022/08/22 09:30:18;;;;;;;7.03;4.57;;;19.30;99.90;;;;;;5032591;28;20043;-57
2022/08/22 09:32:56;;;;;;;9.38;4.20;;;19.40;99.90;;;;;;5032581;28;20030;-57
2022/08/22 09:35:55;;;;;;;7.05;3.20;;;19.40;99.90;;;;;;5031782;28;20473;-57
2022/08/22 09:38:24;;;;;;;6.60;3.50;;;19.10;99.90;;;;;;5041179;28;20056;-57
2022/08/22 09:41:15;;;;;;;5.38;2.70;;;19.10;99.90;;;;;;5050114;28;20104;-57
2022/08/22 09:43:49;;;;;;;5.72;3.63;;;18.90;99.90;;;;;;5052718;28;20045;-57
2022/08/22 09:46:53;;;;;;;5.55;3.67;;;19.00;99.90;;;;;;5052607;28;20483;-57
2022/08/22 09:49:57;;;;;;;6.50;3.72;;;18.90;99.90;;;;;;5051070;28;20143;-57
2022/08/22 09:52:46;;;;;;;7.40;3.70;;;18.90;99.90;;;;;;5040063;28;20399;-57
2022/08/22 09:55:38;;;;;;;8.07;4.25;;;18.80;99.90;;;;;;5051818;28;20534;-57
2022/08/22 09:58:35;;;;;;;5.97;3.13;;;18.80;99.90;;;;;;5038407;28;20514;-57
2022/08/22 10:01:17;;;;;;;5.80;3.55;;;18.70;99.90;;;;;;5044905;28;20121;-57
2022/08/22 10:04:04;;;;;;;7.60;3.70;;;18.70;99.90;;;;;;5051226;28;20037;-57
2022/08/22 10:06:51;;;;;;;7.65;4.03;;;18.80;99.90;;;;;;5048346;28;20044;-57
2022/08/22 10:09:53;;;;;;;5.85;3.95;;;18.60;99.90;;;;;;5051257;28;20090;-57
2022/08/22 10:12:43;;;;;;;7.82;4.75;;;18.60;99.90;;;;;;5048523;28;20065;-57
2022/08/22 10:15:36;;;;;;;6.57;3.90;;;18.80;99.90;;;;;;5040298;28;20417;-57
2022/08/22 10:18:22;;;;;;;7.60;4.75;;;18.90;99.90;;;;;;5045283;28;20120;-57
2022/08/22 10:21:20;;;;;;;5.22;3.78;;;18.80;99.90;;;;;;5051329;28;20047;-57
2022/08/22 10:24:07;;;;;;;9.70;3.72;;;19.00;99.90;;;;;;5038598;28;20598;-57
2022/08/22 10:26:40;;;;;;;11.32;4.93;;;19.00;99.90;;;;;;5056029;28;20033;-57
2022/08/22 10:29:34;;;;;;;4.72;3.83;;;18.90;99.90;;;;;;5050126;28;20463;-57
2022/08/22 10:32:13;;;;;;;8.02;5.15;;;19.00;99.90;;;;;;5055386;28;20115;-57
2022/08/22 10:34:45;;;;;;;7.60;5.15;;;19.00;99.90;;;;;;5056896;28;20056;-57
2022/08/22 10:37:28;;;;;;;4.82;3.72;;;19.00;99.90;;;;;;5052056;28;20159;-57
2022/08/22 10:40:13;;;;;;;4.25;3.85;;;19.00;99.90;;;;;;5049417;28;20478;-57
2022/08/22 10:43:07;;;;;;;7.25;4.13;;;19.10;99.90;;;;;;5057117;28;20119;-57
2022/08/22 10:45:40;;;;;;;5.78;3.30;;;19.10;99.90;;;;;;5057085;28;20523;-57
2022/08/22 10:48:09;;;;;;;5.28;3.90;;;18.90;99.90;;;;;;5056642;28;20047;-57
2022/08/22 10:50:49;;;;;;;5.88;4.00;;;19.00;99.90;;;;;;5055851;28;20112;-57
2022/08/22 10:53:34;;;;;;;4.32;3.78;;;19.00;99.90;;;;;;5056554;28;20127;-57
2022/08/22 10:56:35;;;;;;;6.38;4.72;;;19.10;99.90;;;;;;5056528;28;20049;-57
2022/08/22 10:59:08;;;;;;;9.63;5.43;;;19.20;99.90;;;;;;5056429;28;20033;-57
2022/08/22 11:01:40;;;;;;;12.65;6.95;;;19.30;99.90;;;;;;5057360;28;20531;-57
2022/08/22 11:04:36;;;;;;;10.90;7.40;;;19.30;99.90;;;;;;5057850;28;20036;-57
2022/08/22 11:07:36;;;;;;;16.60;9.18;;;19.50;99.90;;;;;;5055658;28;20044;-57
2022/08/22 11:10:18;;;;;;;18.55;10.80;;;19.60;99.90;;;;;;5048609;28;20036;-57
2022/08/22 11:12:57;;;;;;;15.77;9.95;;;19.80;99.90;;;;;;5068944;28;20111;-57
2022/08/22 11:16:01;;;;;;;21.98;11.70;;;20.00;99.90;;;;;;5046719;28;20112;-57
2022/08/22 11:18:49;;;;;;;13.35;9.40;;;20.10;99.90;;;;;;5042452;28;20036;-57
2022/08/22 11:21:34;;;;;;;17.45;9.07;;;20.20;99.90;;;;;;5046502;28;20025;-57
2022/08/22 11:24:38;;;;;;;18.73;9.70;;;20.20;99.90;;;;;;5048089;28;20487;-57
2022/08/22 11:27:10;;;;;;;12.95;6.78;;;20.30;99.90;;;;;;5048414;28;20040;-57
2022/08/22 11:29:50;;;;;;;32.28;9.27;;;20.00;99.90;;;;;;5053135;28;20033;-57
2022/08/22 11:32:30;;;;;;;23.10;8.43;;;20.00;99.90;;;;;;5049275;28;20051;-57
2022/08/22 11:35:06;;;;;;;22.25;8.43;;;20.10;99.90;;;;;;5048360;28;20079;-57
2022/08/22 11:37:48;;;;;;;34.03;8.63;;;20.20;99.90;;;;;;5053702;28;20100;-57
2022/08/22 11:40:31;;;;;;;18.05;6.53;;;20.30;99.90;;;;;;5051773;28;20025;-57
2022/08/22 11:43:21;;;;;;;36.80;8.50;;;20.40;99.90;;;;;;5053888;28;20460;-57
2022/08/22 11:45:50;;;;;;;33.85;8.80;;;20.50;99.90;;;;;;5053486;28;20029;-57
2022/08/22 11:48:55;;;;;;;35.95;9.02;;;20.60;99.90;;;;;;5053326;28;20072;-58
2022/08/22 11:51:59;;;;;;;22.75;7.85;;;20.80;99.90;;;;;;5045716;28;20120;-57
2022/08/22 11:54:27;;;;;;;20.23;7.85;;;20.90;99.90;;;;;;5049119;28;20375;-57
2022/08/22 11:57:07;;;;;;;21.80;6.80;;;21.00;99.90;;;;;;5056101;28;20021;-57
2022/08/22 11:59:59;;;;;;;22.30;5.83;;;20.90;99.90;;;;;;5056177;28;20097;-57
2022/08/22 12:02:34;;;;;;;25.55;6.43;;;20.80;99.90;;;;;;5055198;28;20357;-57
2022/08/22 12:05:31;;;;;;;15.07;5.30;;;20.90;99.90;;;;;;5048718;28;20037;-57
2022/08/22 12:08:12;;;;;;;12.52;7.03;;;21.00;99.90;;;;;;5054956;28;20410;-57
2022/08/22 12:10:56;;;;;;;21.25;11.60;;;21.10;99.90;;;;;;5046798;28;20044;-57
2022/08/22 12:13:46;;;;;;;37.28;12.00;;;21.10;99.90;;;;;;5054495;28;20017;-58
2022/08/22 12:16:53;;;;;;;15.70;8.70;;;21.20;99.90;;;;;;5045169;28;20041;-57
2022/08/22 12:19:29;;;;;;;21.40;9.38;;;21.40;99.90;;;;;;5047701;28;20028;-57
2022/08/22 12:22:32;;;;;;;18.35;7.18;;;21.80;99.90;;;;;;5044720;28;20092;-57
2022/08/22 12:25:37;;;;;;;10.48;6.90;;;22.30;99.90;;;;;;5051154;28;20102;-57
2022/08/22 12:28:12;;;;;;;13.90;9.82;;;22.60;99.90;;;;;;5045610;28;20035;-57
2022/08/22 12:30:41;;;;;;;10.38;8.60;;;23.00;98.70;;;;;;5051486;28;20028;-57
2022/08/22 12:33:08;;;;;;;11.15;7.68;;;23.10;93.80;;;;;;5042942;28;20033;-57
2022/08/22 12:35:43;;;;;;;11.68;8.20;;;23.40;94.30;;;;;;5045342;28;20371;-57
2022/08/22 12:38:25;;;;;;;22.58;11.35;;;23.20;93.30;;;;;;5052992;28;20025;-57
2022/08/22 12:41:28;;;;;;;16.83;10.23;;;23.40;96.60;;;;;;5052348;28;20047;-57
2022/08/22 12:44:15;;;;;;;14.48;8.27;;;23.50;96.10;;;;;;5055545;28;20453;-57
2022/08/22 12:47:01;;;;;;;12.65;7.47;;;23.50;93.10;;;;;;5055375;28;20428;-57
2022/08/22 12:49:37;;;;;;;6.25;5.13;;;23.50;92.70;;;;;;5054936;28;20045;-57
2022/08/22 12:52:28;;;;;;;11.82;5.55;;;23.20;94.20;;;;;;5053260;28;20394;-57
2022/08/22 12:55:19;;;;;;;12.48;6.05;;;23.00;94.10;;;;;;5043880;28;20029;-57
2022/08/22 12:58:20;;;;;;;14.90;4.97;;;22.80;95.60;;;;;;5054902;28;20025;-57
2022/08/22 13:00:47;;;;;;;10.85;4.65;;;22.60;96.00;;;;;;5053918;28;20037;-57
2022/08/22 13:03:24;;;;;;;9.52;5.00;;;22.50;96.00;;;;;;5054920;28;20031;-57
2022/08/22 13:05:51;;;;;;;23.30;7.47;;;22.40;96.40;;;;;;5054834;28;20182;-57
2022/08/22 13:08:38;;;;;;;9.90;4.18;;;22.40;97.90;;;;;;5051582;28;20029;-57
2022/08/22 13:11:12;;;;;;;9.00;4.25;;;22.40;98.00;;;;;;5054579;28;20032;-57
2022/08/22 13:13:53;;;;;;;6.28;4.38;;;22.30;98.00;;;;;;5057756;28;20032;-57
2022/08/22 13:16:21;;;;;;;6.68;4.72;;;22.30;96.10;;;;;;5041428;28;20501;-57
2022/08/22 13:19:04;;;;;;;13.80;7.43;;;22.00;96.40;;;;;;5043574;28;20017;-57
2022/08/22 13:21:33;;;;;;;15.90;6.18;;;22.00;98.10;;;;;;5040772;28;20072;-57
2022/08/22 13:24:11;;;;;;;14.23;5.03;;;22.00;98.80;;;;;;5054731;28;20041;-57
2022/08/22 13:26:47;;;;;;;6.88;5.00;;;22.10;98.10;;;;;;5054816;28;20025;-57
2022/08/22 13:29:21;;;;;;;11.23;5.90;;;22.10;97.50;;;;;;5034979;28;20041;-57
2022/08/22 13:31:59;;;;;;;12.68;5.43;;;22.30;97.80;;;;;;5034479;28;20034;-57
2022/08/22 13:34:49;;;;;;;8.57;5.60;;;22.30;95.70;;;;;;5034689;28;20426;-57
2022/08/22 13:37:20;;;;;;;8.05;4.93;;;22.30;97.10;;;;;;5034755;28;20505;-57
2022/08/22 13:39:47;;;;;;;;;;;22.40;99.60;;;;;;5035082;28;20056;-57
2022/08/22 13:42:25;;;;;;;9.05;4.40;;;22.30;95.90;;;;;;5034339;28;19909;-57
2022/08/22 13:44:55;;;;;;;13.75;9.02;;;22.40;96.20;;;;;;5034465;28;20043;-57
2022/08/22 13:47:25;;;;;;;13.32;5.35;;;22.60;96.10;;;;;;5034406;28;20091;-57
2022/08/22 13:50:11;;;;;;;12.60;4.37;;;22.80;96.20;;;;;;5034387;28;20454;-57
2022/08/22 13:52:41;;;;;;;12.52;4.55;;;23.00;93.50;;;;;;5033650;28;20030;-57
2022/08/22 13:55:37;;;;;;;6.50;4.32;;;23.10;93.80;;;;;;5034419;28;20029;-57
2022/08/22 13:58:21;;;;;;;9.98;4.07;;;23.40;95.10;;;;;;5034463;28;20047;-57
2022/08/22 14:01:08;;;;;;;4.50;3.58;;;23.60;92.00;;;;;;5034294;28;20072;-57
2022/08/22 14:03:45;;;;;;;5.82;4.63;;;23.50;88.40;;;;;;5034357;28;20033;-57
2022/08/22 14:06:32;;;;;;;6.93;4.80;;;23.70;88.00;;;;;;5034039;28;20033;-57
2022/08/22 14:09:16;;;;;;;11.65;6.38;;;23.90;89.90;;;;;;5034361;28;20060;-57